sensor_id;sensor_type;location;lat;lon;timestamp;pressure;altitude;pressure_sealevel;temperature;humidity
62791;BME280;48830;53.426;10.300;2024-03-02T00:00:57;100378.34;;;22.37;70.38
62791;BME280;48830;53.426;10.300;2024-03-02T00:03:23;100379.25;;;22.36;70.34
62791;BME280;48830;53.426;10.300;2024-03-02T00:05:51;100375.78;;;22.35;70.28
62791;BME280;48830;53.426;10.300;2024-03-02T00:08:24;100385.34;;;22.36;70.47
62791;BME280;48830;53.426;10.300;2024-03-02T00:11:02;100378.34;;;22.37;70.35
62791;BME280;48830;53.426;10.300;2024-03-02T00:13:28;100373.16;;;22.35;70.41
62791;BME280;48830;53.426;10.300;2024-03-02T00:15:56;100377.50;;;22.36;70.56
62791;BME280;48830;53.426;10.300;2024-03-02T00:18:27;100373.16;;;22.35;70.32
62791;BME280;48830;53.426;10.300;2024-03-02T00:20:55;100381.03;;;22.35;70.19
62791;BME280;48830;53.426;10.300;2024-03-02T00:23:22;100367.88;;;22.37;70.74
62791;BME280;48830;53.426;10.300;2024-03-02T00:25:50;100371.41;;;22.36;70.75
62791;BME280;48830;53.426;10.300;2024-03-02T00:28:28;100360.94;;;22.36;70.58
62791;BME280;48830;53.426;10.300;2024-03-02T00:31:08;100361.00;;;22.34;70.64
62791;BME280;48830;53.426;10.300;2024-03-02T00:33:35;100360.06;;;22.35;70.24
62791;BME280;48830;53.426;10.300;2024-03-02T00:36:02;100358.38;;;22.34;70.55
62791;BME280;48830;53.426;10.300;2024-03-02T00:38:29;100357.47;;;22.35;70.53
62791;BME280;48830;53.426;10.300;2024-03-02T00:40:56;100348.75;;;22.35;70.60
62791;BME280;48830;53.426;10.300;2024-03-02T00:43:41;100352.22;;;22.35;70.50
62791;BME280;48830;53.426;10.300;2024-03-02T00:46:07;100359.22;;;22.35;70.18
62791;BME280;48830;53.426;10.300;2024-03-02T00:48:33;100355.69;;;22.36;70.71
62791;BME280;48830;53.426;10.300;2024-03-02T00:51:02;100354.84;;;22.35;70.56
62791;BME280;48830;53.426;10.300;2024-03-02T00:53:29;100356.59;;;22.35;70.35
62791;BME280;48830;53.426;10.300;2024-03-02T00:55:55;100353.06;;;22.36;70.54
62791;BME280;48830;53.426;10.300;2024-03-02T00:58:20;100352.22;;;22.35;70.25
62791;BME280;48830;53.426;10.300;2024-03-02T01:00:46;100354.00;;;22.35;70.57
62791;BME280;48830;53.426;10.300;2024-03-02T01:03:12;100352.28;;;22.34;70.20
62791;BME280;48830;53.426;10.300;2024-03-02T01:05:41;100348.75;;;22.35;70.54
62791;BME280;48830;53.426;10.300;2024-03-02T01:08:07;100344.44;;;22.34;70.71
62791;BME280;48830;53.426;10.300;2024-03-02T01:10:32;100346.16;;;22.33;70.67
62791;BME280;48830;53.426;10.300;2024-03-02T01:12:58;100354.03;;;22.33;70.47
62791;BME280;48830;53.426;10.300;2024-03-02T01:15:23;100346.16;;;22.33;70.57
62791;BME280;48830;53.426;10.300;2024-03-02T01:17:49;100346.16;;;22.33;70.84
62791;BME280;48830;53.426;10.300;2024-03-02T01:20:14;100341.06;;;22.30;70.54
62791;BME280;48830;53.426;10.300;2024-03-02T01:22:40;100344.47;;;22.32;70.69
62791;BME280;48830;53.426;10.300;2024-03-02T01:25:05;100336.69;;;22.31;70.79
62791;BME280;48830;53.426;10.300;2024-03-02T01:27:31;100341.94;;;22.31;70.64
62791;BME280;48830;53.426;10.300;2024-03-02T01:29:56;100335.84;;;22.30;70.45
62791;BME280;48830;53.426;10.300;2024-03-02T01:32:21;100336.69;;;22.31;70.32
62791;BME280;48830;53.426;10.300;2024-03-02T01:34:47;100332.38;;;22.30;70.25
62791;BME280;48830;53.426;10.300;2024-03-02T01:37:12;100332.44;;;22.28;70.53
62791;BME280;48830;53.426;10.300;2024-03-02T01:39:38;100324.59;;;22.28;70.52
62791;BME280;48830;53.426;10.300;2024-03-02T01:42:04;100326.31;;;22.27;70.27
62791;BME280;48830;53.426;10.300;2024-03-02T01:44:30;100322.81;;;22.29;70.77
62791;BME280;48830;53.426;10.300;2024-03-02T01:46:55;100328.91;;;22.29;70.41
62791;BME280;48830;53.426;10.300;2024-03-02T01:49:21;100329.88;;;22.26;70.75
62791;BME280;48830;53.426;10.300;2024-03-02T01:51:46;100331.63;;;22.26;70.63
62791;BME280;48830;53.426;10.300;2024-03-02T01:54:11;100332.56;;;22.25;70.87
62791;BME280;48830;53.426;10.300;2024-03-02T01:56:37;100329.16;;;22.23;70.54
62791;BME280;48830;53.426;10.300;2024-03-02T01:59:02;100338.72;;;22.24;70.88
62791;BME280;48830;53.426;10.300;2024-03-02T02:01:28;100332.66;;;22.22;70.49
62791;BME280;48830;53.426;10.300;2024-03-02T02:03:54;100337.06;;;22.21;70.90
62791;BME280;48830;53.426;10.300;2024-03-02T02:06:19;100338.78;;;22.22;70.72
62791;BME280;48830;53.426;10.300;2024-03-02T02:08:45;100337.91;;;22.22;70.46
62791;BME280;48830;53.426;10.300;2024-03-02T02:11:10;100335.34;;;22.20;70.91
62791;BME280;48830;53.426;10.300;2024-03-02T02:13:36;100344.13;;;22.19;70.54
62791;BME280;48830;53.426;10.300;2024-03-02T02:16:07;100339.81;;;22.18;70.49
62791;BME280;48830;53.426;10.300;2024-03-02T02:18:33;100330.25;;;22.17;70.84
62791;BME280;48830;53.426;10.300;2024-03-02T02:20:59;100341.56;;;22.18;70.61
62791;BME280;48830;53.426;10.300;2024-03-02T02:23:24;100339.00;;;22.16;70.50
62791;BME280;48830;53.426;10.300;2024-03-02T02:25:49;100328.53;;;22.16;70.85
62791;BME280;48830;53.426;10.300;2024-03-02T02:28:15;100333.75;;;22.16;70.60
62791;BME280;48830;53.426;10.300;2024-03-02T02:30:40;100330.25;;;22.17;70.65
62791;BME280;48830;53.426;10.300;2024-03-02T02:33:06;100327.63;;;22.17;70.96
62791;BME280;48830;53.426;10.300;2024-03-02T02:35:31;100322.41;;;22.17;70.54
62791;BME280;48830;53.426;10.300;2024-03-02T02:37:57;100322.41;;;22.17;71.01
62791;BME280;48830;53.426;10.300;2024-03-02T02:40:23;100318.06;;;22.16;70.34
62791;BME280;48830;53.426;10.300;2024-03-02T02:42:49;100320.66;;;22.16;70.39
62791;BME280;48830;53.426;10.300;2024-03-02T02:45:15;100318.06;;;22.16;70.78
62791;BME280;48830;53.426;10.300;2024-03-02T02:47:44;100317.19;;;22.16;70.90
62791;BME280;48830;53.426;10.300;2024-03-02T02:50:11;100319.78;;;22.17;70.81
62791;BME280;48830;53.426;10.300;2024-03-02T02:52:39;100313.66;;;22.17;70.60
62791;BME280;48830;53.426;10.300;2024-03-02T02:55:07;100320.63;;;22.18;70.43
62791;BME280;48830;53.426;10.300;2024-03-02T02:57:34;100314.53;;;22.17;70.58
62791;BME280;48830;53.426;10.300;2024-03-02T03:00:08;100314.53;;;22.17;70.71
62791;BME280;48830;53.426;10.300;2024-03-02T03:02:47;100306.69;;;22.17;70.75
62791;BME280;48830;53.426;10.300;2024-03-02T03:05:14;100311.00;;;22.18;70.39
62791;BME280;48830;53.426;10.300;2024-03-02T03:07:40;100301.47;;;22.17;70.38
62791;BME280;48830;53.426;10.300;2024-03-02T03:10:06;100302.34;;;22.16;70.63
62791;BME280;48830;53.426;10.300;2024-03-02T03:12:33;100309.31;;;22.17;70.84
62791;BME280;48830;53.426;10.300;2024-03-02T03:14:59;100305.81;;;22.17;70.40
62791;BME280;48830;53.426;10.300;2024-03-02T03:17:25;100310.16;;;22.18;70.91
62791;BME280;48830;53.426;10.300;2024-03-02T03:19:50;100309.31;;;22.17;70.60
62791;BME280;48830;53.426;10.300;2024-03-02T03:22:16;100306.63;;;22.19;70.59
62791;BME280;48830;53.426;10.300;2024-03-02T03:24:42;100310.09;;;22.19;70.78
62791;BME280;48830;53.426;10.300;2024-03-02T03:27:07;100303.94;;;22.20;70.57
62791;BME280;48830;53.426;10.300;2024-03-02T03:29:32;100304.91;;;22.18;70.84
62791;BME280;48830;53.426;10.300;2024-03-02T03:31:58;100305.78;;;22.18;70.77
62791;BME280;48830;53.426;10.300;2024-03-02T03:34:23;100304.06;;;22.17;70.28
62791;BME280;48830;53.426;10.300;2024-03-02T03:36:49;100304.06;;;22.17;70.45
62791;BME280;48830;53.426;10.300;2024-03-02T03:39:15;100308.38;;;22.18;70.68
62791;BME280;48830;53.426;10.300;2024-03-02T03:41:40;100305.81;;;22.17;70.50
62791;BME280;48830;53.426;10.300;2024-03-02T03:44:06;100301.47;;;22.17;70.32
62791;BME280;48830;53.426;10.300;2024-03-02T03:46:31;100309.31;;;22.17;70.53
62791;BME280;48830;53.426;10.300;2024-03-02T03:48:57;100307.53;;;22.18;70.95
62791;BME280;48830;53.426;10.300;2024-03-02T03:51:22;100305.78;;;22.18;70.67
62791;BME280;48830;53.426;10.300;2024-03-02T03:53:50;100301.38;;;22.19;70.32
62791;BME280;48830;53.426;10.300;2024-03-02T03:56:16;100310.09;;;22.19;70.80
62791;BME280;48830;53.426;10.300;2024-03-02T03:58:41;100307.47;;;22.19;70.36
62791;BME280;48830;53.426;10.300;2024-03-02T04:01:06;100298.75;;;22.19;70.48
62791;BME280;48830;53.426;10.300;2024-03-02T04:03:32;100297.91;;;22.18;70.49
62791;BME280;48830;53.426;10.300;2024-03-02T04:05:57;100298.84;;;22.17;70.41
62791;BME280;48830;53.426;10.300;2024-03-02T04:08:23;100293.59;;;22.17;70.58
62791;BME280;48830;53.426;10.300;2024-03-02T04:10:48;100298.84;;;22.17;70.55
62791;BME280;48830;53.426;10.300;2024-03-02T04:13:13;100296.22;;;22.17;70.80
62791;BME280;48830;53.426;10.300;2024-03-02T04:15:39;100291.84;;;22.18;70.84
62791;BME280;48830;53.426;10.300;2024-03-02T04:18:06;100295.31;;;22.18;70.51
62791;BME280;48830;53.426;10.300;2024-03-02T04:20:31;100295.31;;;22.18;70.64
62791;BME280;48830;53.426;10.300;2024-03-02T04:22:57;100287.44;;;22.18;70.48
62791;BME280;48830;53.426;10.300;2024-03-02T04:25:22;100287.38;;;22.20;70.78
62791;BME280;48830;53.426;10.300;2024-03-02T04:27:48;100282.97;;;22.20;70.67
62791;BME280;48830;53.426;10.300;2024-03-02T04:30:13;100281.28;;;22.19;70.50
62791;BME280;48830;53.426;10.300;2024-03-02T04:32:39;100283.84;;;22.21;70.29
62791;BME280;48830;53.426;10.300;2024-03-02T04:35:05;100284.69;;;22.21;70.69
62791;BME280;48830;53.426;10.300;2024-03-02T04:37:34;100287.38;;;22.20;70.56
62791;BME280;48830;53.426;10.300;2024-03-02T04:39:59;100287.38;;;22.20;70.44
62791;BME280;48830;53.426;10.300;2024-03-02T04:42:25;100289.16;;;22.19;70.35
62791;BME280;48830;53.426;10.300;2024-03-02T04:44:50;100298.69;;;22.20;70.85
62791;BME280;48830;53.426;10.300;2024-03-02T04:47:16;100293.47;;;22.20;70.26
62791;BME280;48830;53.426;10.300;2024-03-02T04:49:41;100291.69;;;22.21;70.38
62791;BME280;48830;53.426;10.300;2024-03-02T04:52:06;100292.53;;;22.21;70.29
62791;BME280;48830;53.426;10.300;2024-03-02T04:54:32;100296.88;;;22.22;70.47
62791;BME280;48830;53.426;10.300;2024-03-02T04:56:57;100297.75;;;22.23;70.31
62791;BME280;48830;53.426;10.300;2024-03-02T04:59:23;100300.28;;;22.24;70.48
62791;BME280;48830;53.426;10.300;2024-03-02T05:01:49;100297.75;;;22.23;70.79
62791;BME280;48830;53.426;10.300;2024-03-02T05:04:14;100302.13;;;22.22;70.52
62791;BME280;48830;53.426;10.300;2024-03-02T05:06:40;100302.97;;;22.23;70.69
62791;BME280;48830;53.426;10.300;2024-03-02T05:09:07;100311.69;;;22.23;70.55
62791;BME280;48830;53.426;10.300;2024-03-02T05:11:32;100309.06;;;22.23;70.34
62791;BME280;48830;53.426;10.300;2024-03-02T05:14:07;100310.75;;;22.24;70.42
62791;BME280;48830;53.426;10.300;2024-03-02T05:16:33;100307.22;;;22.25;70.63
62791;BME280;48830;53.426;10.300;2024-03-02T05:18:59;100308.06;;;22.26;70.20
62791;BME280;48830;53.426;10.300;2024-03-02T05:21:25;100309.75;;;22.27;70.37
62791;BME280;48830;53.426;10.300;2024-03-02T05:23:50;100305.44;;;22.26;70.71
62791;BME280;48830;53.426;10.300;2024-03-02T05:26:16;100301.97;;;22.25;70.38
62791;BME280;48830;53.426;10.300;2024-03-02T05:28:42;100299.38;;;22.25;70.70
62791;BME280;48830;53.426;10.300;2024-03-02T05:31:10;100292.34;;;22.26;70.10
62791;BME280;48830;53.426;10.300;2024-03-02T05:33:37;100292.34;;;22.26;70.21
62791;BME280;48830;53.426;10.300;2024-03-02T05:36:03;100297.59;;;22.26;70.40
62791;BME280;48830;53.426;10.300;2024-03-02T05:38:29;100293.22;;;22.26;70.46
62791;BME280;48830;53.426;10.300;2024-03-02T05:40:55;100298.44;;;22.26;70.37
62791;BME280;48830;53.426;10.300;2024-03-02T05:43:20;100300.13;;;22.27;70.32
62791;BME280;48830;53.426;10.300;2024-03-02T05:45:46;100297.53;;;22.27;70.50
62791;BME280;48830;53.426;10.300;2024-03-02T05:48:11;100308.00;;;22.27;70.36
62791;BME280;48830;53.426;10.300;2024-03-02T05:50:36;100301.06;;;22.26;70.50
62791;BME280;48830;53.426;10.300;2024-03-02T05:53:02;100305.38;;;22.27;70.45
62791;BME280;48830;53.426;10.300;2024-03-02T05:55:27;100314.13;;;22.28;70.36
62791;BME280;48830;53.426;10.300;2024-03-02T05:57:53;100304.53;;;22.27;70.21
62791;BME280;48830;53.426;10.300;2024-03-02T06:00:42;100313.22;;;22.27;70.29
62791;BME280;48830;53.426;10.300;2024-03-02T06:03:08;100310.63;;;22.27;70.08
62791;BME280;48830;53.426;10.300;2024-03-02T06:05:34;100315.81;;;22.29;70.45
62791;BME280;48830;53.426;10.300;2024-03-02T06:08:00;100306.19;;;22.30;70.43
62791;BME280;48830;53.426;10.300;2024-03-02T06:10:25;100313.13;;;22.31;70.09
62791;BME280;48830;53.426;10.300;2024-03-02T06:12:51;100309.59;;;22.32;70.33
62791;BME280;48830;53.426;10.300;2024-03-02T06:15:16;100305.25;;;22.31;70.34
62791;BME280;48830;53.426;10.300;2024-03-02T06:17:42;100306.97;;;22.32;70.35
62791;BME280;48830;53.426;10.300;2024-03-02T06:20:08;100307.81;;;22.32;70.09
62791;BME280;48830;53.426;10.300;2024-03-02T06:22:33;100308.66;;;22.33;70.20
62791;BME280;48830;53.426;10.300;2024-03-02T06:25:00;100309.50;;;22.33;70.47
62791;BME280;48830;53.426;10.300;2024-03-02T06:27:25;100307.69;;;22.35;70.04
62791;BME280;48830;53.426;10.300;2024-03-02T06:29:50;100318.09;;;22.37;70.22
62791;BME280;48830;53.426;10.300;2024-03-02T06:32:16;100319.81;;;22.38;69.80
62791;BME280;48830;53.426;10.300;2024-03-02T06:34:42;100317.19;;;22.38;70.33
62791;BME280;48830;53.426;10.300;2024-03-02T06:37:07;100318.03;;;22.38;70.09
62791;BME280;48830;53.426;10.300;2024-03-02T06:39:32;100324.16;;;22.39;70.17
62791;BME280;48830;53.426;10.300;2024-03-02T06:42:00;100323.28;;;22.38;69.87
62791;BME280;48830;53.426;10.300;2024-03-02T06:44:25;100325.00;;;22.39;70.03
62791;BME280;48830;53.426;10.300;2024-03-02T06:46:51;100325.84;;;22.40;69.70
62791;BME280;48830;53.426;10.300;2024-03-02T06:49:16;100325.00;;;22.39;69.81
62791;BME280;48830;53.426;10.300;2024-03-02T06:51:43;100325.84;;;22.40;69.67
62791;BME280;48830;53.426;10.300;2024-03-02T06:54:09;100326.78;;;22.39;70.26
62791;BME280;48830;53.426;10.300;2024-03-02T06:56:34;100327.53;;;22.41;69.94
62791;BME280;48830;53.426;10.300;2024-03-02T06:59:00;100326.69;;;22.40;69.47
62791;BME280;48830;53.426;10.300;2024-03-02T07:01:25;100332.78;;;22.41;69.66
62791;BME280;48830;53.426;10.300;2024-03-02T07:03:51;100332.78;;;22.41;69.86
62791;BME280;48830;53.426;10.300;2024-03-02T07:06:17;100330.94;;;22.43;69.81
62791;BME280;48830;53.426;10.300;2024-03-02T07:08:42;100328.31;;;22.43;69.45
62791;BME280;48830;53.426;10.300;2024-03-02T07:11:08;100329.25;;;22.42;69.95
62791;BME280;48830;53.426;10.300;2024-03-02T07:13:33;100326.63;;;22.42;69.67
62791;BME280;48830;53.426;10.300;2024-03-02T07:15:59;100326.56;;;22.43;69.73
62791;BME280;48830;53.426;10.300;2024-03-02T07:18:28;100335.25;;;22.44;69.85
62791;BME280;48830;53.426;10.300;2024-03-02T07:20:54;100334.38;;;22.45;69.59
62791;BME280;48830;53.426;10.300;2024-03-02T07:23:20;100331.75;;;22.45;69.78
62791;BME280;48830;53.426;10.300;2024-03-02T07:25:49;100328.28;;;22.44;69.44
62791;BME280;48830;53.426;10.300;2024-03-02T07:28:15;100323.91;;;22.45;69.40
62791;BME280;48830;53.426;10.300;2024-03-02T07:30:41;100332.53;;;22.47;69.56
62791;BME280;48830;53.426;10.300;2024-03-02T07:33:06;100337.75;;;22.47;69.71
62791;BME280;48830;53.426;10.300;2024-03-02T07:35:32;100342.94;;;22.48;69.74
62791;BME280;48830;53.426;10.300;2024-03-02T07:37:57;100348.13;;;22.50;69.38
62791;BME280;48830;53.426;10.300;2024-03-02T07:40:23;100346.41;;;22.49;69.75
62791;BME280;48830;53.426;10.300;2024-03-02T07:42:49;100358.59;;;22.50;69.42
62791;BME280;48830;53.426;10.300;2024-03-02T07:45:14;100359.47;;;22.50;69.34
62791;BME280;48830;53.426;10.300;2024-03-02T07:47:40;100358.47;;;22.53;69.86
62791;BME280;48830;53.426;10.300;2024-03-02T07:50:06;100356.78;;;22.52;69.66
62791;BME280;48830;53.426;10.300;2024-03-02T07:52:32;100360.16;;;22.54;69.07
62791;BME280;48830;53.426;10.300;2024-03-02T07:54:58;100367.13;;;22.55;69.33
62791;BME280;48830;53.426;10.300;2024-03-02T07:57:24;100374.00;;;22.58;69.35
62791;BME280;48830;53.426;10.300;2024-03-02T07:59:49;100379.16;;;22.59;69.01
62791;BME280;48830;53.426;10.300;2024-03-02T08:02:15;100381.69;;;22.62;69.54
62791;BME280;48830;53.426;10.300;2024-03-02T08:04:41;100382.53;;;22.63;69.03
62791;BME280;48830;53.426;10.300;2024-03-02T08:07:06;100379.84;;;22.64;68.95
62791;BME280;48830;53.426;10.300;2024-03-02T08:09:32;100380.75;;;22.63;69.23
62791;BME280;48830;53.426;10.300;2024-03-02T08:11:57;100378.03;;;22.66;69.19
62791;BME280;48830;53.426;10.300;2024-03-02T08:14:23;100384.88;;;22.69;69.26
62791;BME280;48830;53.426;10.300;2024-03-02T08:16:49;100390.97;;;22.69;69.34
62791;BME280;48830;53.426;10.300;2024-03-02T08:19:15;100390.94;;;22.71;69.14
62791;BME280;48830;53.426;10.300;2024-03-02T08:21:41;100395.31;;;22.70;69.36
62791;BME280;48830;53.426;10.300;2024-03-02T08:24:06;100397.91;;;22.70;69.17
62791;BME280;48830;53.426;10.300;2024-03-02T08:26:32;100392.69;;;22.70;68.76
62791;BME280;48830;53.426;10.300;2024-03-02T08:28:58;100398.81;;;22.71;69.17
62791;BME280;48830;53.426;10.300;2024-03-02T08:31:24;100395.25;;;22.72;69.24
62791;BME280;48830;53.426;10.300;2024-03-02T08:33:49;100397.81;;;22.73;69.43
62791;BME280;48830;53.426;10.300;2024-03-02T08:36:15;100398.53;;;22.77;69.84
62791;BME280;48830;53.426;10.300;2024-03-02T08:38:41;100397.56;;;22.79;71.32
62791;BME280;48830;53.426;10.300;2024-03-02T08:41:06;100407.19;;;22.79;71.07
62791;BME280;48830;53.426;10.300;2024-03-02T08:43:32;100405.22;;;22.84;71.55
62791;BME280;48830;53.426;10.300;2024-03-02T08:45:58;100412.00;;;22.90;71.52
62791;BME280;48830;53.426;10.300;2024-03-02T08:48:24;100406.59;;;22.94;71.31
62791;BME280;48830;53.426;10.300;2024-03-02T08:50:49;100405.59;;;22.97;71.52
62791;BME280;48830;53.426;10.300;2024-03-02T08:53:15;100403.63;;;23.02;72.04
62791;BME280;48830;53.426;10.300;2024-03-02T08:55:45;100410.38;;;23.08;72.06
62791;BME280;48830;53.426;10.300;2024-03-02T08:58:11;100413.72;;;23.11;71.94
62791;BME280;48830;53.426;10.300;2024-03-02T09:00:36;100410.19;;;23.12;72.39
62791;BME280;48830;53.426;10.300;2024-03-02T09:03:02;100409.00;;;22.99;70.75
62791;BME280;48830;53.426;10.300;2024-03-02T09:05:27;100410.72;;;23.00;69.79
62791;BME280;48830;53.426;10.300;2024-03-02T09:07:53;100410.38;;;23.08;70.21
62791;BME280;48830;53.426;10.300;2024-03-02T09:10:18;100408.50;;;23.11;70.90
62791;BME280;48830;53.426;10.300;2024-03-02T09:12:43;100409.25;;;23.13;71.04
62791;BME280;48830;53.426;10.300;2024-03-02T09:15:09;100417.97;;;23.14;70.93
62791;BME280;48830;53.426;10.300;2024-03-02T09:17:34;100413.47;;;23.17;71.01
62791;BME280;48830;53.426;10.300;2024-03-02T09:20:00;100411.66;;;23.19;71.10
62791;BME280;48830;53.426;10.300;2024-03-02T09:22:25;100412.53;;;23.18;70.89
62791;BME280;48830;53.426;10.300;2024-03-02T09:24:50;100419.38;;;23.22;70.81
62791;BME280;48830;53.426;10.300;2024-03-02T09:27:16;100413.19;;;23.23;70.92
62791;BME280;48830;53.426;10.300;2024-03-02T09:29:41;100415.91;;;23.22;71.34
62791;BME280;48830;53.426;10.300;2024-03-02T09:32:07;100414.13;;;23.22;71.03
62791;BME280;48830;53.426;10.300;2024-03-02T09:34:33;100409.81;;;23.21;70.42
62791;BME280;48830;53.426;10.300;2024-03-02T09:36:59;100414.03;;;23.24;70.35
62791;BME280;48830;53.426;10.300;2024-03-02T09:39:24;100409.59;;;23.26;70.78
62791;BME280;48830;53.426;10.300;2024-03-02T09:41:53;100414.84;;;23.26;70.63
62791;BME280;48830;53.426;10.300;2024-03-02T09:44:18;100420.03;;;23.27;70.85
62791;BME280;48830;53.426;10.300;2024-03-02T09:46:48;100410.25;;;23.31;70.83
62791;BME280;48830;53.426;10.300;2024-03-02T09:49:14;100410.25;;;23.31;71.11
62791;BME280;48830;53.426;10.300;2024-03-02T09:51:40;100409.25;;;23.34;70.60
62791;BME280;48830;53.426;10.300;2024-03-02T09:54:07;100406.56;;;23.35;70.81
62791;BME280;48830;53.426;10.300;2024-03-02T09:56:33;100417.13;;;23.34;71.10
62791;BME280;48830;53.426;10.300;2024-03-02T09:58:59;100416.19;;;23.35;70.44
62791;BME280;48830;53.426;10.300;2024-03-02T10:01:24;100418.06;;;23.33;71.01
62791;BME280;48830;53.426;10.300;2024-03-02T10:03:50;100418.06;;;23.33;70.95
62791;BME280;48830;53.426;10.300;2024-03-02T10:06:19;100419.75;;;23.34;70.30
62791;BME280;48830;53.426;10.300;2024-03-02T10:08:45;100417.97;;;23.34;70.44
62791;BME280;48830;53.426;10.300;2024-03-02T10:11:11;100416.28;;;23.33;70.28
62791;BME280;48830;53.426;10.300;2024-03-02T10:13:36;100418.81;;;23.35;70.74
62791;BME280;48830;53.426;10.300;2024-03-02T10:16:11;100415.34;;;23.34;70.54
62791;BME280;48830;53.426;10.300;2024-03-02T10:18:37;100416.19;;;23.35;70.34
62791;BME280;48830;53.426;10.300;2024-03-02T10:21:15;100417.13;;;23.34;70.26
62791;BME280;48830;53.426;10.300;2024-03-02T10:23:40;100424.16;;;23.33;70.76
62791;BME280;48830;53.426;10.300;2024-03-02T10:26:17;100425.00;;;23.34;70.28
62791;BME280;48830;53.426;10.300;2024-03-02T10:28:47;100418.06;;;23.33;70.54
62791;BME280;48830;53.426;10.300;2024-03-02T10:31:13;100414.50;;;23.34;70.78
62791;BME280;48830;53.426;10.300;2024-03-02T10:33:39;100430.25;;;23.34;70.89
62791;BME280;48830;53.426;10.300;2024-03-02T10:36:05;100431.91;;;23.36;70.25
62791;BME280;48830;53.426;10.300;2024-03-02T10:38:31;100427.53;;;23.35;70.17
62791;BME280;48830;53.426;10.300;2024-03-02T10:40:57;100421.44;;;23.35;70.39
62791;BME280;48830;53.426;10.300;2024-03-02T10:43:25;100424.88;;;23.37;70.40
62791;BME280;48830;53.426;10.300;2024-03-02T10:45:52;100420.59;;;23.34;69.99
62791;BME280;48830;53.426;10.300;2024-03-02T10:48:18;100421.44;;;23.35;70.65
62791;BME280;48830;53.426;10.300;2024-03-02T10:50:43;100423.19;;;23.36;70.15
62791;BME280;48830;53.426;10.300;2024-03-02T10:53:09;100423.03;;;23.39;70.12
62791;BME280;48830;53.426;10.300;2024-03-02T10:55:34;100421.19;;;23.41;70.14
62791;BME280;48830;53.426;10.300;2024-03-02T10:58:00;100426.44;;;23.41;70.51
62791;BME280;48830;53.426;10.300;2024-03-02T11:00:32;100421.19;;;23.41;69.96
62791;BME280;48830;53.426;10.300;2024-03-02T11:03:05;100422.91;;;23.42;69.87
62791;BME280;48830;53.426;10.300;2024-03-02T11:05:43;100418.56;;;23.41;70.21
62791;BME280;48830;53.426;10.300;2024-03-02T11:08:14;100431.66;;;23.41;69.94
62791;BME280;48830;53.426;10.300;2024-03-02T11:10:50;100433.41;;;23.42;70.18
62791;BME280;48830;53.426;10.300;2024-03-02T11:13:33;100430.91;;;23.39;70.30
62791;BME280;48830;53.426;10.300;2024-03-02T11:16:08;100429.84;;;23.43;70.20
62791;BME280;48830;53.426;10.300;2024-03-02T11:18:36;100437.00;;;23.39;70.23
62791;BME280;48830;53.426;10.300;2024-03-02T11:21:02;100436.91;;;23.41;70.04
62791;BME280;48830;53.426;10.300;2024-03-02T11:23:33;100429.97;;;23.40;70.29
62791;BME280;48830;53.426;10.300;2024-03-02T11:26:18;100436.88;;;23.42;70.31
62791;BME280;48830;53.426;10.300;2024-03-02T11:28:44;100434.25;;;23.42;70.26
62791;BME280;48830;53.426;10.300;2024-03-02T11:31:10;100435.03;;;23.44;69.92
62791;BME280;48830;53.426;10.300;2024-03-02T11:33:37;100434.19;;;23.44;69.71
62791;BME280;48830;53.426;10.300;2024-03-02T11:36:02;100437.81;;;23.41;69.79
62791;BME280;48830;53.426;10.300;2024-03-02T11:38:30;100430.81;;;23.40;69.69
62791;BME280;48830;53.426;10.300;2024-03-02T11:40:56;100434.25;;;23.42;70.07
62791;BME280;48830;53.426;10.300;2024-03-02T11:43:22;100432.47;;;23.43;70.03
62791;BME280;48830;53.426;10.300;2024-03-02T11:45:57;100431.56;;;23.44;70.33
62791;BME280;48830;53.426;10.300;2024-03-02T11:48:24;100430.81;;;23.40;69.68
62791;BME280;48830;53.426;10.300;2024-03-02T11:50:50;100427.22;;;23.43;70.17
62791;BME280;48830;53.426;10.300;2024-03-02T11:53:16;100433.25;;;23.45;69.55
62791;BME280;48830;53.426;10.300;2024-03-02T11:55:42;100428.16;;;23.42;70.22
62791;BME280;48830;53.426;10.300;2024-03-02T11:58:14;100429.84;;;23.43;70.16
62791;BME280;48830;53.426;10.300;2024-03-02T12:00:43;100439.53;;;23.41;69.82
62791;BME280;48830;53.426;10.300;2024-03-02T12:03:09;100438.78;;;23.39;70.20
62791;BME280;48830;53.426;10.300;2024-03-02T12:05:37;100430.97;;;23.37;69.72
62791;BME280;48830;53.426;10.300;2024-03-02T12:08:04;100432.56;;;23.41;69.77
62791;BME280;48830;53.426;10.300;2024-03-02T12:10:31;100432.75;;;23.37;69.70
62791;BME280;48830;53.426;10.300;2024-03-02T12:13:04;100420.47;;;23.37;70.20
62791;BME280;48830;53.426;10.300;2024-03-02T12:15:35;100426.56;;;23.38;69.69
62791;BME280;48830;53.426;10.300;2024-03-02T12:18:04;100426.56;;;23.38;70.03
62791;BME280;48830;53.426;10.300;2024-03-02T12:20:32;100428.28;;;23.39;70.07
62791;BME280;48830;53.426;10.300;2024-03-02T12:23:00;100432.88;;;23.34;69.95
62791;BME280;48830;53.426;10.300;2024-03-02T12:25:26;100427.50;;;23.37;69.65
62791;BME280;48830;53.426;10.300;2024-03-02T12:27:56;100423.75;;;23.42;69.28
62791;BME280;48830;53.426;10.300;2024-03-02T12:30:23;100428.13;;;23.01;57.20
62791;BME280;48830;53.426;10.300;2024-03-02T12:32:49;100436.56;;;22.43;55.97
62791;BME280;48830;53.426;10.300;2024-03-02T12:35:14;100427.31;;;22.35;55.75
62791;BME280;48830;53.426;10.300;2024-03-02T12:37:47;100421.28;;;22.09;55.39